sensor_id;sensor_type;location;lat;lon;timestamp;pressure;altitude;pressure_sealevel;temperature;humidity
64362;BME280;50685;53.346;-6.296;2023-05-23T00:00:56;102899.31;;;12.16;60.24
64362;BME280;50685;53.346;-6.296;2023-05-23T00:03:25;102858.88;;;11.81;60.63
64362;BME280;50685;53.346;-6.296;2023-05-23T00:05:51;102841.94;;;11.74;60.52
64362;BME280;50685;53.346;-6.296;2023-05-23T00:08:17;102836.66;;;11.76;60.54
64362;BME280;50685;53.346;-6.296;2023-05-23T00:10:43;102840.22;;;11.76;60.72
64362;BME280;50685;53.346;-6.296;2023-05-23T00:13:08;102830.38;;;11.70;60.80
64362;BME280;50685;53.346;-6.296;2023-05-23T00:15:42;102857.16;;;11.86;60.72
64362;BME280;50685;53.346;-6.296;2023-05-23T00:18:10;102918.81;;;12.15;60.61
64362;BME280;50685;53.346;-6.296;2023-05-23T00:20:45;102878.72;;;12.01;60.48
64362;BME280;50685;53.346;-6.296;2023-05-23T00:23:14;102875.13;;;11.98;61.30
64362;BME280;50685;53.346;-6.296;2023-05-23T00:25:46;102853.44;;;11.71;61.60
64362;BME280;50685;53.346;-6.296;2023-05-23T00:28:16;102913.28;;;12.00;62.50
64362;BME280;50685;53.346;-6.296;2023-05-23T00:30:42;102877.38;;;11.73;62.44
64362;BME280;50685;53.346;-6.296;2023-05-23T00:33:08;102855.94;;;11.62;62.00
64362;BME280;50685;53.346;-6.296;2023-05-23T00:35:33;102853.16;;;11.56;62.77
64362;BME280;50685;53.346;-6.296;2023-05-23T00:38:02;102918.38;;;11.87;62.50
64362;BME280;50685;53.346;-6.296;2023-05-23T00:41:00;102853.09;;;11.51;63.11
64362;BME280;50685;53.346;-6.296;2023-05-23T00:43:28;102847.75;;;11.50;63.04
64362;BME280;50685;53.346;-6.296;2023-05-23T00:45:57;102913.91;;;11.86;62.77
64362;BME280;50685;53.346;-6.296;2023-05-23T00:48:24;102859.31;;;11.50;63.18
64362;BME280;50685;53.346;-6.296;2023-05-23T00:50:56;102828.06;;;11.37;62.83
64362;BME280;50685;53.346;-6.296;2023-05-23T00:53:21;102844.16;;;11.48;63.09
64362;BME280;50685;53.346;-6.296;2023-05-23T00:55:47;102860.19;;;11.51;63.94
64362;BME280;50685;53.346;-6.296;2023-05-23T00:58:23;102896.72;;;11.63;64.32
64362;BME280;50685;53.346;-6.296;2023-05-23T01:00:49;102910.00;;;11.64;64.57
64362;BME280;50685;53.346;-6.296;2023-05-23T01:03:20;102809.94;;;11.13;64.62
64362;BME280;50685;53.346;-6.296;2023-05-23T01:05:46;102862.53;;;11.34;64.58
64362;BME280;50685;53.346;-6.296;2023-05-23T01:08:17;102890.25;;;11.48;65.13
64362;BME280;50685;53.346;-6.296;2023-05-23T01:10:50;102850.66;;;11.12;65.82
64362;BME280;50685;53.346;-6.296;2023-05-23T01:13:27;102849.81;;;11.14;65.56
64362;BME280;50685;53.346;-6.296;2023-05-23T01:18:41;102907.00;;;11.44;66.10
64362;BME280;50685;53.346;-6.296;2023-05-23T01:21:12;102894.38;;;11.31;66.37
64362;BME280;50685;53.346;-6.296;2023-05-23T01:29:12;102862.13;;;11.11;66.45
64362;BME280;50685;53.346;-6.296;2023-05-23T01:31:42;102888.91;;;11.21;66.52
64362;BME280;50685;53.346;-6.296;2023-05-23T01:34:12;102907.63;;;11.29;66.86
64362;BME280;50685;53.346;-6.296;2023-05-23T01:36:41;102908.47;;;11.27;67.29
64362;BME280;50685;53.346;-6.296;2023-05-23T01:39:08;102886.97;;;11.13;67.25
64362;BME280;50685;53.346;-6.296;2023-05-23T01:41:37;102906.66;;;11.25;67.45
64362;BME280;50685;53.346;-6.296;2023-05-23T01:44:03;102858.38;;;10.98;66.90
64362;BME280;50685;53.346;-6.296;2023-05-23T01:46:33;102881.44;;;11.02;67.00
64362;BME280;50685;53.346;-6.296;2023-05-23T01:49:02;102856.47;;;10.90;67.52
64362;BME280;50685;53.346;-6.296;2023-05-23T01:51:28;102849.22;;;10.83;68.01
64362;BME280;50685;53.346;-6.296;2023-05-23T01:54:01;102865.19;;;10.86;67.57
64362;BME280;50685;53.346;-6.296;2023-05-23T01:56:27;102874.09;;;10.88;68.23
64362;BME280;50685;53.346;-6.296;2023-05-23T01:58:55;102868.66;;;10.81;68.50
64362;BME280;50685;53.346;-6.296;2023-05-23T02:01:23;102883.72;;;10.82;68.73
64362;BME280;50685;53.346;-6.296;2023-05-23T02:03:51;102880.22;;;10.84;68.20
64362;BME280;50685;53.346;-6.296;2023-05-23T02:06:17;102841.78;;;10.65;68.68
64362;BME280;50685;53.346;-6.296;2023-05-23T02:08:46;102883.59;;;10.75;69.31
64362;BME280;50685;53.346;-6.296;2023-05-23T02:11:11;102927.53;;;11.04;69.24
64362;BME280;50685;53.346;-6.296;2023-05-23T02:13:39;102926.66;;;11.05;69.02
64362;BME280;50685;53.346;-6.296;2023-05-23T02:16:05;102925.69;;;11.01;69.52
64362;BME280;50685;53.346;-6.296;2023-05-23T02:18:37;102899.66;;;10.82;69.50
64362;BME280;50685;53.346;-6.296;2023-05-23T02:21:04;102889.88;;;10.79;69.77
64362;BME280;50685;53.346;-6.296;2023-05-23T02:23:30;102875.63;;;10.75;69.32
64362;BME280;50685;53.346;-6.296;2023-05-23T02:25:55;102872.19;;;10.81;68.89
64362;BME280;50685;53.346;-6.296;2023-05-23T02:28:21;102827.56;;;10.60;68.76
64362;BME280;50685;53.346;-6.296;2023-05-23T02:30:47;102860.34;;;10.64;68.95
64362;BME280;50685;53.346;-6.296;2023-05-23T02:33:12;102931.06;;;11.04;69.17
64362;BME280;50685;53.346;-6.296;2023-05-23T02:35:45;102874.56;;;10.67;69.39
64362;BME280;50685;53.346;-6.296;2023-05-23T02:38:13;102868.41;;;10.68;69.36
64362;BME280;50685;53.346;-6.296;2023-05-23T02:40:38;102863.00;;;10.64;68.88
64362;BME280;50685;53.346;-6.296;2023-05-23T02:43:04;102865.44;;;10.53;69.31
64362;BME280;50685;53.346;-6.296;2023-05-23T02:45:29;102897.53;;;10.65;69.86
64362;BME280;50685;53.346;-6.296;2023-05-23T02:48:02;102867.81;;;10.39;69.70
64362;BME280;50685;53.346;-6.296;2023-05-23T02:50:28;102928.63;;;10.72;70.00
64362;BME280;50685;53.346;-6.296;2023-05-23T02:52:56;102872.09;;;10.34;70.11
64362;BME280;50685;53.346;-6.296;2023-05-23T02:55:22;102933.94;;;10.71;69.71
64362;BME280;50685;53.346;-6.296;2023-05-23T02:57:50;102879.31;;;10.41;69.84
64362;BME280;50685;53.346;-6.296;2023-05-23T03:00:19;102938.41;;;10.73;69.73
64362;BME280;50685;53.346;-6.296;2023-05-23T03:02:44;102861.47;;;10.34;69.60
64362;BME280;50685;53.346;-6.296;2023-05-23T03:05:16;102935.75;;;10.73;69.38
64362;BME280;50685;53.346;-6.296;2023-05-23T03:07:46;102847.13;;;10.24;69.85
64362;BME280;50685;53.346;-6.296;2023-05-23T03:10:22;102858.56;;;10.21;70.08
64362;BME280;50685;53.346;-6.296;2023-05-23T03:12:51;102926.59;;;10.60;70.06
64362;BME280;50685;53.346;-6.296;2023-05-23T03:15:16;102862.81;;;10.15;70.21
64362;BME280;50685;53.346;-6.296;2023-05-23T03:17:42;102879.97;;;10.31;69.99
64362;BME280;50685;53.346;-6.296;2023-05-23T03:20:08;102851.31;;;10.14;69.83
64362;BME280;50685;53.346;-6.296;2023-05-23T03:22:48;102889.88;;;10.38;69.71
64362;BME280;50685;53.346;-6.296;2023-05-23T03:25:22;102930.91;;;10.54;70.32
64362;BME280;50685;53.346;-6.296;2023-05-23T03:27:48;102900.22;;;10.27;70.45
64362;BME280;50685;53.346;-6.296;2023-05-23T03:30:13;102877.97;;;10.20;70.33
64362;BME280;50685;53.346;-6.296;2023-05-23T03:32:39;102869.97;;;10.19;70.30
64362;BME280;50685;53.346;-6.296;2023-05-23T03:35:05;102852.94;;;10.07;70.46
64362;BME280;50685;53.346;-6.296;2023-05-23T03:37:31;102921.16;;;10.53;70.72
64362;BME280;50685;53.346;-6.296;2023-05-23T03:39:59;102863.78;;;10.18;70.26
64362;BME280;50685;53.346;-6.296;2023-05-23T03:42:30;102872.84;;;10.28;70.51
64362;BME280;50685;53.346;-6.296;2023-05-23T03:44:59;102932.72;;;10.56;70.43
64362;BME280;50685;53.346;-6.296;2023-05-23T03:47:24;102926.47;;;10.54;70.33
64362;BME280;50685;53.346;-6.296;2023-05-23T03:49:50;102860.13;;;10.13;70.37
64362;BME280;50685;53.346;-6.296;2023-05-23T03:52:18;102913.03;;;10.45;70.92
64362;BME280;50685;53.346;-6.296;2023-05-23T03:54:47;102926.28;;;10.43;71.06
64362;BME280;50685;53.346;-6.296;2023-05-23T03:57:12;102916.44;;;10.39;71.41
64362;BME280;50685;53.346;-6.296;2023-05-23T03:59:40;102874.38;;;10.18;71.08
64362;BME280;50685;53.346;-6.296;2023-05-23T04:02:06;102840.34;;;9.97;70.97
64362;BME280;50685;53.346;-6.296;2023-05-23T04:04:34;102919.09;;;10.41;71.43
64362;BME280;50685;53.346;-6.296;2023-05-23T04:07:00;102902.88;;;10.27;71.86
64362;BME280;50685;53.346;-6.296;2023-05-23T04:09:26;102916.25;;;10.33;71.82
64362;BME280;50685;53.346;-6.296;2023-05-23T04:11:57;102913.63;;;10.35;71.86
64362;BME280;50685;53.346;-6.296;2023-05-23T04:14:23;102836.69;;;9.92;71.91
64362;BME280;50685;53.346;-6.296;2023-05-23T04:16:48;102857.22;;;10.01;71.92
64362;BME280;50685;53.346;-6.296;2023-05-23T04:19:14;102904.56;;;10.25;72.14
64362;BME280;50685;53.346;-6.296;2023-05-23T04:21:42;102911.59;;;10.21;72.45
64362;BME280;50685;53.346;-6.296;2023-05-23T04:24:08;102905.38;;;10.21;72.52
64362;BME280;50685;53.346;-6.296;2023-05-23T04:26:35;102917.88;;;10.26;72.68
64362;BME280;50685;53.346;-6.296;2023-05-23T04:29:04;102906.38;;;10.26;72.28
64362;BME280;50685;53.346;-6.296;2023-05-23T04:31:30;102909.94;;;10.26;72.27
64362;BME280;50685;53.346;-6.296;2023-05-23T04:33:55;102908.19;;;10.28;72.08
64362;BME280;50685;53.346;-6.296;2023-05-23T04:36:21;102862.41;;;9.97;72.02
64362;BME280;50685;53.346;-6.296;2023-05-23T04:38:59;102847.34;;;9.95;72.24
64362;BME280;50685;53.346;-6.296;2023-05-23T04:41:24;102866.03;;;10.01;71.92
64362;BME280;50685;53.346;-6.296;2023-05-23T04:43:50;102821.38;;;9.80;71.61
64362;BME280;50685;53.346;-6.296;2023-05-23T04:46:19;102915.97;;;10.19;72.50
64362;BME280;50685;53.346;-6.296;2023-05-23T04:48:50;102857.22;;;10.01;71.99
64362;BME280;50685;53.346;-6.296;2023-05-23T04:51:16;102862.41;;;9.96;72.51
64362;BME280;50685;53.346;-6.296;2023-05-23T04:53:42;102908.13;;;10.24;72.31
64362;BME280;50685;53.346;-6.296;2023-05-23T04:56:08;102832.09;;;9.85;72.52
64362;BME280;50685;53.346;-6.296;2023-05-23T04:58:34;102893.75;;;10.14;72.52
64362;BME280;50685;53.346;-6.296;2023-05-23T05:00:59;102910.91;;;10.30;72.47
64362;BME280;50685;53.346;-6.296;2023-05-23T05:03:28;102911.75;;;10.29;72.52
64362;BME280;50685;53.346;-6.296;2023-05-23T05:05:56;102842.75;;;9.88;72.88
64362;BME280;50685;53.346;-6.296;2023-05-23T05:08:23;102856.97;;;9.91;72.95
64362;BME280;50685;53.346;-6.296;2023-05-23T05:10:49;102863.13;;;9.90;72.86
64362;BME280;50685;53.346;-6.296;2023-05-23T05:13:14;102875.63;;;9.94;72.69
64362;BME280;50685;53.346;-6.296;2023-05-23T05:15:40;102935.66;;;10.31;72.79
64362;BME280;50685;53.346;-6.296;2023-05-23T05:18:06;102877.09;;;9.83;73.25
64362;BME280;50685;53.346;-6.296;2023-05-23T05:20:34;102923.91;;;10.19;73.23
64362;BME280;50685;53.346;-6.296;2023-05-23T05:23:05;102936.56;;;10.31;73.56
64362;BME280;50685;53.346;-6.296;2023-05-23T05:25:32;102916.13;;;10.27;73.04
64362;BME280;50685;53.346;-6.296;2023-05-23T05:28:01;102921.44;;;10.28;73.34
64362;BME280;50685;53.346;-6.296;2023-05-23T05:30:33;102932.13;;;10.30;73.43
64362;BME280;50685;53.346;-6.296;2023-05-23T05:33:02;102877.63;;;10.05;73.46
64362;BME280;50685;53.346;-6.296;2023-05-23T05:35:37;102917.34;;;10.40;72.99
64362;BME280;50685;53.346;-6.296;2023-05-23T05:38:05;102915.28;;;10.29;73.27
64362;BME280;50685;53.346;-6.296;2023-05-23T05:40:32;102852.69;;;9.96;72.98
64362;BME280;50685;53.346;-6.296;2023-05-23T05:43:04;102858.88;;;9.97;73.41
64362;BME280;50685;53.346;-6.296;2023-05-23T05:45:29;102904.69;;;10.29;73.34
64362;BME280;50685;53.346;-6.296;2023-05-23T05:47:57;102843.91;;;9.99;73.45
64362;BME280;50685;53.346;-6.296;2023-05-23T05:50:28;102906.88;;;10.46;73.37
64362;BME280;50685;53.346;-6.296;2023-05-23T05:52:53;102851.25;;;10.11;73.17
64362;BME280;50685;53.346;-6.296;2023-05-23T05:55:19;102841.63;;;10.16;73.19
64362;BME280;50685;53.346;-6.296;2023-05-23T05:58:05;102881.03;;;10.37;73.01
64362;BME280;50685;53.346;-6.296;2023-05-23T06:00:31;102896.03;;;10.37;73.37
64362;BME280;50685;53.346;-6.296;2023-05-23T06:02:56;102911.44;;;10.53;72.93
64362;BME280;50685;53.346;-6.296;2023-05-23T06:05:47;102858.59;;;10.24;73.18
64362;BME280;50685;53.346;-6.296;2023-05-23T06:08:21;102862.34;;;10.34;72.87
64362;BME280;50685;53.346;-6.296;2023-05-23T06:18:34;102857.25;;;10.42;72.69
64362;BME280;50685;53.346;-6.296;2023-05-23T06:51:05;102908.06;;;11.05;71.61
64362;BME280;50685;53.346;-6.296;2023-05-23T06:54:08;102874.25;;;10.96;71.22
64362;BME280;50685;53.346;-6.296;2023-05-23T06:57:08;102933.31;;;11.29;71.37
64362;BME280;50685;53.346;-6.296;2023-05-23T06:59:49;102849.22;;;10.83;70.86
64362;BME280;50685;53.346;-6.296;2023-05-23T07:02:31;102870.63;;;10.92;71.34
64362;BME280;50685;53.346;-6.296;2023-05-23T07:08:15;102917.56;;;11.39;70.94
64362;BME280;50685;53.346;-6.296;2023-05-23T07:10:41;102867.72;;;11.24;70.71
64362;BME280;50685;53.346;-6.296;2023-05-23T07:13:25;102917.03;;;11.59;70.16
64362;BME280;50685;53.346;-6.296;2023-05-23T07:15:50;102908.00;;;11.51;70.41
64362;BME280;50685;53.346;-6.296;2023-05-23T07:18:16;102919.72;;;11.64;70.48
64362;BME280;50685;53.346;-6.296;2023-05-23T07:20:41;102923.41;;;11.70;70.12
64362;BME280;50685;53.346;-6.296;2023-05-23T07:23:17;102918.09;;;11.70;70.07
64362;BME280;50685;53.346;-6.296;2023-05-23T07:25:43;102874.25;;;11.45;69.87
64362;BME280;50685;53.346;-6.296;2023-05-23T07:28:10;102927.13;;;11.80;70.08
64362;BME280;50685;53.346;-6.296;2023-05-23T07:30:35;102875.53;;;11.69;69.96
64362;BME280;50685;53.346;-6.296;2023-05-23T07:33:04;102871.13;;;11.71;69.50
64362;BME280;50685;53.346;-6.296;2023-05-23T07:35:29;102920.44;;;12.05;69.18
64362;BME280;50685;53.346;-6.296;2023-05-23T07:37:55;102874.97;;;11.90;69.54
64362;BME280;50685;53.346;-6.296;2023-05-23T07:40:29;102890.22;;;11.99;68.84
64362;BME280;50685;53.346;-6.296;2023-05-23T07:42:56;102887.59;;;12.02;69.37
64362;BME280;50685;53.346;-6.296;2023-05-23T07:45:34;102893.03;;;12.10;69.22
64362;BME280;50685;53.346;-6.296;2023-05-23T07:48:05;102911.00;;;12.26;68.76
64362;BME280;50685;53.346;-6.296;2023-05-23T07:50:33;102884.16;;;12.09;69.24
64362;BME280;50685;53.346;-6.296;2023-05-23T07:53:02;102910.19;;;12.32;69.06
64362;BME280;50685;53.346;-6.296;2023-05-23T07:55:40;102914.22;;;12.68;68.41
64362;BME280;50685;53.346;-6.296;2023-05-23T07:58:05;102912.22;;;13.25;67.19
64362;BME280;50685;53.346;-6.296;2023-05-23T08:00:32;102860.66;;;13.23;65.29
64362;BME280;50685;53.346;-6.296;2023-05-23T08:02:58;102864.50;;;13.52;64.71
64362;BME280;50685;53.346;-6.296;2023-05-23T08:05:23;102906.66;;;13.99;63.98
64362;BME280;50685;53.346;-6.296;2023-05-23T08:07:50;102887.25;;;14.25;63.29
64362;BME280;50685;53.346;-6.296;2023-05-23T08:14:04;102857.25;;;14.85;60.28
64362;BME280;50685;53.346;-6.296;2023-05-23T08:16:29;102887.66;;;15.42;59.77
64362;BME280;50685;53.346;-6.296;2023-05-23T08:18:55;102877.81;;;15.57;58.23
64362;BME280;50685;53.346;-6.296;2023-05-23T08:21:25;102916.19;;;16.05;57.26
64362;BME280;50685;53.346;-6.296;2023-05-23T08:23:56;102896.56;;;15.91;54.44
64362;BME280;50685;53.346;-6.296;2023-05-23T08:26:31;102879.59;;;15.95;54.86
64362;BME280;50685;53.346;-6.296;2023-05-23T08:29:01;102907.19;;;16.27;54.75
64362;BME280;50685;53.346;-6.296;2023-05-23T08:31:33;102866.19;;;16.11;55.08
64362;BME280;50685;53.346;-6.296;2023-05-23T08:34:01;102875.06;;;16.36;54.12
64362;BME280;50685;53.346;-6.296;2023-05-23T08:36:59;102898.03;;;16.88;53.96
64362;BME280;50685;53.346;-6.296;2023-05-23T08:39:27;102848.06;;;16.78;52.23
64362;BME280;50685;53.346;-6.296;2023-05-23T08:41:59;102878.34;;;16.98;52.00
64362;BME280;50685;53.346;-6.296;2023-05-23T08:44:27;102890.72;;;17.21;51.38
64362;BME280;50685;53.346;-6.296;2023-05-23T08:46:55;102829.22;;;16.96;51.08
64362;BME280;50685;53.346;-6.296;2023-05-23T08:49:24;102836.31;;;17.05;50.35
64362;BME280;50685;53.346;-6.296;2023-05-23T08:51:55;102841.63;;;17.08;50.16
64362;BME280;50685;53.346;-6.296;2023-05-23T08:54:26;102877.22;;;17.33;49.64
64362;BME280;50685;53.346;-6.296;2023-05-23T08:57:12;102860.00;;;17.59;48.35
64362;BME280;50685;53.346;-6.296;2023-05-23T08:59:37;102848.22;;;17.74;48.04
64362;BME280;50685;53.346;-6.296;2023-05-23T09:02:12;102847.44;;;17.64;47.14
64362;BME280;50685;53.346;-6.296;2023-05-23T09:04:44;102843.91;;;17.62;46.46
64362;BME280;50685;53.346;-6.296;2023-05-23T09:07:17;102891.75;;;18.09;45.95
64362;BME280;50685;53.346;-6.296;2023-05-23T09:09:43;102889.84;;;18.22;45.14
64362;BME280;50685;53.346;-6.296;2023-05-23T09:12:09;102834.53;;;18.07;45.07
64362;BME280;50685;53.346;-6.296;2023-05-23T09:14:34;102879.56;;;18.56;43.42
64362;BME280;50685;53.346;-6.296;2023-05-23T09:17:01;102877.00;;;18.47;43.82
64362;BME280;50685;53.346;-6.296;2023-05-23T09:19:27;102888.59;;;18.51;43.57
64362;BME280;50685;53.346;-6.296;2023-05-23T09:21:53;102876.44;;;18.90;44.04
64362;BME280;50685;53.346;-6.296;2023-05-23T09:24:19;102877.03;;;19.11;42.26
64362;BME280;50685;53.346;-6.296;2023-05-23T09:26:48;102840.91;;;19.29;42.31
64362;BME280;50685;53.346;-6.296;2023-05-23T09:29:15;102812.94;;;19.39;41.95
64362;BME280;50685;53.346;-6.296;2023-05-23T09:31:43;102872.16;;;19.89;40.46
64362;BME280;50685;53.346;-6.296;2023-05-23T09:34:09;102821.63;;;19.55;41.14
64362;BME280;50685;53.346;-6.296;2023-05-23T09:36:35;102840.25;;;19.66;40.73
64362;BME280;50685;53.346;-6.296;2023-05-23T09:39:03;102831.53;;;20.02;39.54
64362;BME280;50685;53.346;-6.296;2023-05-23T09:41:35;102854.06;;;20.43;38.02
64362;BME280;50685;53.346;-6.296;2023-05-23T09:44:08;102827.50;;;20.25;38.48
64362;BME280;50685;53.346;-6.296;2023-05-23T09:56:25;102811.59;;;20.12;38.07
64362;BME280;50685;53.346;-6.296;2023-05-23T09:58:53;102841.66;;;20.34;37.77
64362;BME280;50685;53.346;-6.296;2023-05-23T10:01:21;102855.13;;;20.78;37.49
64362;BME280;50685;53.346;-6.296;2023-05-23T10:03:57;102835.50;;;20.29;38.34
64362;BME280;50685;53.346;-6.296;2023-05-23T10:09:01;102842.56;;;20.33;38.23
64362;BME280;50685;53.346;-6.296;2023-05-23T10:14:28;102843.47;;;19.88;37.43
64362;BME280;50685;53.346;-6.296;2023-05-23T10:17:06;102863.56;;;20.17;36.34
64362;BME280;50685;53.346;-6.296;2023-05-23T10:19:43;102852.81;;;20.16;37.58
64362;BME280;50685;53.346;-6.296;2023-05-23T10:22:30;102863.47;;;20.22;36.71
64362;BME280;50685;53.346;-6.296;2023-05-23T10:25:08;102794.84;;;19.95;36.37
64362;BME280;50685;53.346;-6.296;2023-05-23T10:27:38;102812.91;;;19.89;36.60
64362;BME280;50685;53.346;-6.296;2023-05-23T10:30:05;102834.34;;;19.96;37.24
64362;BME280;50685;53.346;-6.296;2023-05-23T10:32:32;102855.47;;;20.17;36.88
64362;BME280;50685;53.346;-6.296;2023-05-23T10:37:55;102759.84;;;19.95;37.33
64362;BME280;50685;53.346;-6.296;2023-05-23T10:40:31;102836.38;;;20.72;36.95
64362;BME280;50685;53.346;-6.296;2023-05-23T10:43:04;102857.22;;;21.41;36.51
64362;BME280;50685;53.346;-6.296;2023-05-23T10:45:41;102804.78;;;21.49;35.43
64362;BME280;50685;53.346;-6.296;2023-05-23T10:54:19;102767.66;;;20.49;37.02
64362;BME280;50685;53.346;-6.296;2023-05-23T10:57:09;102831.03;;;21.08;36.32
64362;BME280;50685;53.346;-6.296;2023-05-23T11:00:16;102832.44;;;20.45;38.09
64362;BME280;50685;53.346;-6.296;2023-05-23T11:09:24;102833.66;;;20.72;37.83
64362;BME280;50685;53.346;-6.296;2023-05-23T11:17:17;102820.75;;;21.24;36.72
64362;BME280;50685;53.346;-6.296;2023-05-23T11:20:11;102821.72;;;20.84;36.93
64362;BME280;50685;53.346;-6.296;2023-05-23T11:22:37;102794.63;;;20.49;37.57
64362;BME280;50685;53.346;-6.296;2023-05-23T11:25:22;102796.63;;;20.39;37.96
64362;BME280;50685;53.346;-6.296;2023-05-23T11:28:03;102791.56;;;20.24;38.41
64362;BME280;50685;53.346;-6.296;2023-05-23T11:30:31;102794.56;;;20.52;37.82
64362;BME280;50685;53.346;-6.296;2023-05-23T11:33:21;102784.97;;;20.80;36.97
64362;BME280;50685;53.346;-6.296;2023-05-23T11:35:59;102808.84;;;20.95;37.13
64362;BME280;50685;53.346;-6.296;2023-05-23T11:38:27;102811.13;;;21.12;36.84
64362;BME280;50685;53.346;-6.296;2023-05-23T11:41:02;102787.41;;;21.27;37.00
64362;BME280;50685;53.346;-6.296;2023-05-23T11:43:48;102764.63;;;21.37;36.30
64362;BME280;50685;53.346;-6.296;2023-05-23T11:46:14;102799.00;;;21.65;36.04
64362;BME280;50685;53.346;-6.296;2023-05-23T11:48:49;102803.78;;;21.54;36.24
64362;BME280;50685;53.346;-6.296;2023-05-23T11:51:17;102806.19;;;21.66;35.89
64362;BME280;50685;53.346;-6.296;2023-05-23T11:53:45;102786.53;;;21.61;35.91
64362;BME280;50685;53.346;-6.296;2023-05-23T11:56:14;102752.06;;;21.69;35.84
64362;BME280;50685;53.346;-6.296;2023-05-23T11:58:39;102793.34;;;22.07;35.64
64362;BME280;50685;53.346;-6.296;2023-05-23T12:01:10;102784.91;;;21.87;34.71
64362;BME280;50685;53.346;-6.296;2023-05-23T12:03:47;102805.31;;;21.97;35.10
64362;BME280;50685;53.346;-6.296;2023-05-23T12:06:45;102791.88;;;21.95;35.28
64362;BME280;50685;53.346;-6.296;2023-05-23T12:12:27;102791.44;;;22.09;35.51
64362;BME280;50685;53.346;-6.296;2023-05-23T12:15:05;102785.22;;;22.07;35.51
64362;BME280;50685;53.346;-6.296;2023-05-23T12:17:31;102780.00;;;22.31;35.43
64362;BME280;50685;53.346;-6.296;2023-05-23T12:19:57;102779.91;;;22.34;35.60
64362;BME280;50685;53.346;-6.296;2023-05-23T12:22:24;102781.69;;;22.65;34.81
64362;BME280;50685;53.346;-6.296;2023-05-23T12:25:13;102760.00;;;22.37;33.97
64362;BME280;50685;53.346;-6.296;2023-05-23T12:27:55;102791.00;;;22.55;33.35
64362;BME280;50685;53.346;-6.296;2023-05-23T12:30:42;102764.97;;;22.21;34.04
64362;BME280;50685;53.346;-6.296;2023-05-23T12:33:36;102758.41;;;21.99;35.12
64362;BME280;50685;53.346;-6.296;2023-05-23T12:43:49;102741.28;;;22.01;33.81
64362;BME280;50685;53.346;-6.296;2023-05-23T12:55:05;102770.94;;;22.90;33.67
64362;BME280;50685;53.346;-6.296;2023-05-23T12:57:49;102770.75;;;22.68;33.47
64362;BME280;50685;53.346;-6.296;2023-05-23T13:20:29;102750.00;;;23.74;33.04
64362;BME280;50685;53.346;-6.296;2023-05-23T13:33:31;102700.78;;;23.85;32.43
64362;BME280;50685;53.346;-6.296;2023-05-23T13:40:07;102717.72;;;22.91;34.49
64362;BME280;50685;53.346;-6.296;2023-05-23T14:25:50;102659.56;;;22.77;33.90
64362;BME280;50685;53.346;-6.296;2023-05-23T14:32:25;102714.84;;;23.22;34.11
64362;BME280;50685;53.346;-6.296;2023-05-23T14:38:03;102724.97;;;23.42;34.58
64362;BME280;50685;53.346;-6.296;2023-05-23T14:44:38;102651.78;;;23.44;32.57
64362;BME280;50685;53.346;-6.296;2023-05-23T15:08:24;102681.59;;;24.15;32.32
64362;BME280;50685;53.346;-6.296;2023-05-23T16:08:36;102711.31;;;22.37;36.33
64362;BME280;50685;53.346;-6.296;2023-05-23T16:18:26;102696.16;;;22.88;35.35
64362;BME280;50685;53.346;-6.296;2023-05-23T20:02:23;102626.09;;;17.98;47.29
64362;BME280;50685;53.346;-6.296;2023-05-23T20:21:29;102654.31;;;17.58;48.31
64362;BME280;50685;53.346;-6.296;2023-05-23T21:14:58;102706.78;;;17.00;51.50
64362;BME280;50685;53.346;-6.296;2023-05-23T21:17:26;102706.81;;;16.91;51.99
64362;BME280;50685;53.346;-6.296;2023-05-23T21:22:38;102699.81;;;16.73;52.90
64362;BME280;50685;53.346;-6.296;2023-05-23T22:00:56;102702.13;;;15.88;57.04
64362;BME280;50685;53.346;-6.296;2023-05-23T22:15:39;102690.56;;;15.63;57.57
64362;BME280;50685;53.346;-6.296;2023-05-23T22:18:36;102700.38;;;15.73;57.30
64362;BME280;50685;53.346;-6.296;2023-05-23T22:55:40;102720.09;;;15.20;59.09
64362;BME280;50685;53.346;-6.296;2023-05-23T23:00:45;102745.03;;;15.31;59.06
64362;BME280;50685;53.346;-6.296;2023-05-23T23:25:09;102752.19;;;15.01;60.72
64362;BME280;50685;53.346;-6.296;2023-05-23T23:56:00;102764.50;;;14.39;62.88
